Phoenix Cross — MRBQ7 — position and weather

sailwx.info

Track history (hours):
 
Tides and Currents Weather Stations Pressure Air Temp Water Temp Dewpoint Dewpoint Depression Visibility Wind Speed Wind Dir Waves Ship Positions

Phoenix Cross

Last reported at 2014-Nov-23 16:24 UTC. Time now 2014-Nov-23 21:13 UTC.
Position N 54°36' W 001°10'.

Length 30 m; draft 5 m.

Type: Ship. MMSI: 235067452.

Date/timePositionNaut miles runAvg speedWind from/ knotsBaromVisibWave heightAir tempDewpointWater temp
2014-Nov-23 16:24N 54°36' W 001°10'2 2.5
2014-Nov-23 15:33N 54°38' W 001°09'3 3.4
2014-Nov-23 14:33N 54°35' W 001°12'0 0.3
2014-Nov-23 13:33N 54°35' W 001°13'0 0.0
2014-Nov-23 12:32N 54°35' W 001°13'0 0.0
2014-Nov-23 11:32N 54°35' W 001°13'0 0.0
2014-Nov-23 10:33N 54°35' W 001°13'0 0.0
2014-Nov-23 09:33N 54°35' W 001°13'3 3.0
2014-Nov-23 08:33N 54°37' W 001°09'1 1.0
2014-Nov-23 07:33N 54°38' W 001°09'4 3.7
2014-Nov-23 06:32N 54°35' W 001°12'0 0.3
2014-Nov-23 05:20N 54°35' W 001°13'0 0.0
2014-Nov-23 04:32N 54°35' W 001°13'0 0.0
2014-Nov-23 03:32N 54°35' W 001°13'0 0.0
2014-Nov-23 02:05N 54°35' W 001°13'0 0.0
2014-Nov-23 01:05N 54°35' W 001°13'0 0.0
2014-Nov-22 23:16N 54°35' W 001°13'0 0.0
2014-Nov-22 22:29N 54°35' W 001°13'0 0.0
2014-Nov-22 20:09N 54°35' W 001°13'0 0.0
2014-Nov-22 15:32N 54°35' W 001°13'0 0.0
2014-Nov-22 14:33N 54°35' W 001°13'0 0.0
2014-Nov-22 13:33N 54°35' W 001°13'0 0.0
2014-Nov-22 12:33N 54°35' W 001°13'0 0.0
2014-Nov-22 11:32N 54°35' W 001°13'0 0.0
2014-Nov-22 10:33N 54°35' W 001°13'0 0.0
2014-Nov-22 09:34N 54°35' W 001°13'0 0.0
2014-Nov-21 15:23N 54°35' W 001°13'0 0.0
2014-Nov-21 14:33N 54°35' W 001°13'0 0.0
2014-Nov-21 13:33N 54°35' W 001°13'0 0.0
2014-Nov-21 12:28N 54°35' W 001°13'0 0.0
2014-Nov-21 11:32N 54°35' W 001°13'0 0.0
2014-Nov-21 10:30N 54°35' W 001°13'0 0.0
2014-Nov-21 09:31N 54°35' W 001°13'3 3.2
2014-Nov-21 08:33N 54°37' W 001°09'1 1.0
2014-Nov-21 07:34N 54°38' W 001°09'4 0.2
2014-Nov-20 15:32N 54°35' W 001°13'0 0.0
2014-Nov-20 14:33N 54°35' W 001°13'0 0.0
2014-Nov-20 13:33N 54°35' W 001°13'0 0.0
2014-Nov-20 12:33N 54°35' W 001°13'0 0.0
2014-Nov-20 11:33N 54°35' W 001°13'0 0.0
2014-Nov-20 10:33N 54°35' W 001°13'0 0.0
2014-Nov-20 09:32N 54°35' W 001°13'0 0.0
2014-Nov-20 08:32N 54°35' W 001°13'0 0.0
2014-Nov-20 06:20N 54°35' W 001°13'0 0.0
2014-Nov-19 14:33N 54°35' W 001°13'0 0.0
2014-Nov-19 13:33N 54°35' W 001°13'0 0.0
2014-Nov-19 12:32N 54°35' W 001°13'0 0.0
2014-Nov-19 11:31N 54°35' W 001°13'0 0.0
2014-Nov-19 10:32N 54°35' W 001°13'0 0.0
2014-Nov-19 09:32N 54°35' W 001°13'0 0.0
2014-Nov-19 08:25N 54°35' W 001°13'0 0.0
2014-Nov-19 01:13N 54°35' W 001°12'3 4.5
2014-Nov-19 00:33N 54°37' W 001°09'1 0.7
2014-Nov-18 23:34N 54°38' W 001°09'2 0.3
2014-Nov-18 15:32N 54°36' W 001°10'2 1.7
2014-Nov-18 14:34N 54°35' W 001°12'4 3.5
2014-Nov-18 13:33N 54°38' W 001°09'10 9.8
2014-Nov-18 12:33N 54°48' W 001°12'8 6.1
2014-Nov-18 11:11N 54°54' W 001°22'1 0.7
2014-Nov-18 09:30N 54°55' W 001°21'9 9.4
2014-Nov-18 08:34N 54°48' W 001°12'1010.1
2014-Nov-18 07:33N 54°38' W 001°09'4 0.9
2014-Nov-18 03:32N 54°35' W 001°13'0 0.0
2014-Nov-17 16:29N 54°35' W 001°12'3 3.3
2014-Nov-17 15:34N 54°38' W 001°10'3 3.2
2014-Nov-17 14:33N 54°35' W 001°13'0 0.0
2014-Nov-17 13:33N 54°35' W 001°13'0 0.0
2014-Nov-17 12:32N 54°35' W 001°13'0 0.0
2014-Nov-17 11:33N 54°35' W 001°13'0 0.0
2014-Nov-17 10:31N 54°35' W 001°13'0 0.0
2014-Nov-17 09:32N 54°35' W 001°13'0 0.0
2014-Nov-15 15:24N 54°35' W 001°13'0 0.0
2014-Nov-15 14:32N 54°35' W 001°13'0 0.0
2014-Nov-15 13:33N 54°35' W 001°13'0 0.0
2014-Nov-15 12:32N 54°35' W 001°13'0 0.0
2014-Nov-15 11:31N 54°35' W 001°13'0 0.0
2014-Nov-15 10:33N 54°35' W 001°13'0 0.0
2014-Nov-15 09:33N 54°35' W 001°13'0 0.0
2014-Nov-15 08:33N 54°35' W 001°13'  
Track history (hours):
 
Tides and Currents Weather Stations Pressure Air Temp Water Temp Dewpoint Dewpoint Depression Visibility Wind Speed Wind Dir Waves Ship Positions

Phoenix Cross

Last reported at 2014-Nov-23 16:24 UTC. Time now 2014-Nov-23 21:13 UTC.
Position N 54°36' W 001°10'.

Length 30 m; draft 5 m.

Type: Ship. MMSI: 235067452.

Date/timePositionNaut miles runAvg speedWind from/ knotsBaromVisibWave heightAir tempDewpointWater temp
2014-Nov-23 16:24N 54°36' W 001°10'2 2.5
2014-Nov-23 15:33N 54°38' W 001°09'3 3.4
2014-Nov-23 14:33N 54°35' W 001°12'0 0.3
2014-Nov-23 13:33N 54°35' W 001°13'0 0.0
2014-Nov-23 12:32N 54°35' W 001°13'0 0.0
2014-Nov-23 11:32N 54°35' W 001°13'0 0.0
2014-Nov-23 10:33N 54°35' W 001°13'0 0.0
2014-Nov-23 09:33N 54°35' W 001°13'3 3.0
2014-Nov-23 08:33N 54°37' W 001°09'1 1.0
2014-Nov-23 07:33N 54°38' W 001°09'4 3.7
2014-Nov-23 06:32N 54°35' W 001°12'0 0.3
2014-Nov-23 05:20N 54°35' W 001°13'0 0.0
2014-Nov-23 04:32N 54°35' W 001°13'0 0.0
2014-Nov-23 03:32N 54°35' W 001°13'0 0.0
2014-Nov-23 02:05N 54°35' W 001°13'0 0.0
2014-Nov-23 01:05N 54°35' W 001°13'0 0.0
2014-Nov-22 23:16N 54°35' W 001°13'0 0.0
2014-Nov-22 22:29N 54°35' W 001°13'0 0.0
2014-Nov-22 20:09N 54°35' W 001°13'0 0.0
2014-Nov-22 15:32N 54°35' W 001°13'0 0.0
2014-Nov-22 14:33N 54°35' W 001°13'0 0.0
2014-Nov-22 13:33N 54°35' W 001°13'0 0.0
2014-Nov-22 12:33N 54°35' W 001°13'0 0.0
2014-Nov-22 11:32N 54°35' W 001°13'0 0.0
2014-Nov-22 10:33N 54°35' W 001°13'0 0.0
2014-Nov-22 09:34N 54°35' W 001°13'0 0.0
2014-Nov-21 15:23N 54°35' W 001°13'0 0.0
2014-Nov-21 14:33N 54°35' W 001°13'0 0.0
2014-Nov-21 13:33N 54°35' W 001°13'0 0.0
2014-Nov-21 12:28N 54°35' W 001°13'0 0.0
2014-Nov-21 11:32N 54°35' W 001°13'0 0.0
2014-Nov-21 10:30N 54°35' W 001°13'0 0.0
2014-Nov-21 09:31N 54°35' W 001°13'3 3.2
2014-Nov-21 08:33N 54°37' W 001°09'1 1.0
2014-Nov-21 07:34N 54°38' W 001°09'4 0.2
2014-Nov-20 15:32N 54°35' W 001°13'0 0.0
2014-Nov-20 14:33N 54°35' W 001°13'0 0.0
2014-Nov-20 13:33N 54°35' W 001°13'0 0.0
2014-Nov-20 12:33N 54°35' W 001°13'0 0.0
2014-Nov-20 11:33N 54°35' W 001°13'0 0.0
2014-Nov-20 10:33N 54°35' W 001°13'0 0.0
2014-Nov-20 09:32N 54°35' W 001°13'0 0.0
2014-Nov-20 08:32N 54°35' W 001°13'0 0.0
2014-Nov-20 06:20N 54°35' W 001°13'0 0.0
2014-Nov-19 14:33N 54°35' W 001°13'0 0.0
2014-Nov-19 13:33N 54°35' W 001°13'0 0.0
2014-Nov-19 12:32N 54°35' W 001°13'0 0.0
2014-Nov-19 11:31N 54°35' W 001°13'0 0.0
2014-Nov-19 10:32N 54°35' W 001°13'0 0.0
2014-Nov-19 09:32N 54°35' W 001°13'0 0.0
2014-Nov-19 08:25N 54°35' W 001°13'0 0.0
2014-Nov-19 01:13N 54°35' W 001°12'3 4.5
2014-Nov-19 00:33N 54°37' W 001°09'1 0.7
2014-Nov-18 23:34N 54°38' W 001°09'2 0.3
2014-Nov-18 15:32N 54°36' W 001°10'2 1.7
2014-Nov-18 14:34N 54°35' W 001°12'4 3.5
2014-Nov-18 13:33N 54°38' W 001°09'10 9.8
2014-Nov-18 12:33N 54°48' W 001°12'8 6.1
2014-Nov-18 11:11N 54°54' W 001°22'1 0.7
2014-Nov-18 09:30N 54°55' W 001°21'9 9.4
2014-Nov-18 08:34N 54°48' W 001°12'1010.1
2014-Nov-18 07:33N 54°38' W 001°09'4 0.9
2014-Nov-18 03:32N 54°35' W 001°13'0 0.0
2014-Nov-17 16:29N 54°35' W 001°12'3 3.3
2014-Nov-17 15:34N 54°38' W 001°10'3 3.2
2014-Nov-17 14:33N 54°35' W 001°13'0 0.0
2014-Nov-17 13:33N 54°35' W 001°13'0 0.0
2014-Nov-17 12:32N 54°35' W 001°13'0 0.0
2014-Nov-17 11:33N 54°35' W 001°13'0 0.0
2014-Nov-17 10:31N 54°35' W 001°13'0 0.0
2014-Nov-17 09:32N 54°35' W 001°13'0 0.0
2014-Nov-15 15:24N 54°35' W 001°13'0 0.0
2014-Nov-15 14:32N 54°35' W 001°13'0 0.0
2014-Nov-15 13:33N 54°35' W 001°13'0 0.0
2014-Nov-15 12:32N 54°35' W 001°13'0 0.0
2014-Nov-15 11:31N 54°35' W 001°13'0 0.0
2014-Nov-15 10:33N 54°35' W 001°13'0 0.0
2014-Nov-15 09:33N 54°35' W 001°13'0 0.0
2014-Nov-15 08:33N 54°35' W 001°13'  

Dump ship's entire track history